Baraka — ZGAE5 — position and weather

sailwx.info

Track history (hours):
 
Tides and Currents Weather Stations Pressure Air Temp Water Temp Dewpoint Dewpoint Depression Visibility Wind Speed Wind Dir Waves Ship Positions

Baraka

Last reported at 2016-Jul-01 02:31 UTC. Time now 2016-Jul-01 02:48 UTC.
Position N 40°32' E 014°15'.

Length 59 m; draft 3.3 m.

Type: Other ship. MMSI: 319015300.

Date/timePositionNaut miles runAvg speedWind from/ knotsBaromVisibWave heightAir tempDewpointWater temp
2016-Jul-01 02:31N 40°32' E 014°15'0 0.0
2016-Jul-01 01:28N 40°32' E 014°15'0 0.0
2016-Jul-01 00:19N 40°32' E 014°15'0 0.0
2016-Jun-30 23:28N 40°32' E 014°15'0 0.0
2016-Jun-30 22:31N 40°32' E 014°15'0 0.0
2016-Jun-30 21:28N 40°32' E 014°15'0 0.0
2016-Jun-30 20:31N 40°32' E 014°15'0 0.0
2016-Jun-30 19:28N 40°32' E 014°15'0 0.0
2016-Jun-30 18:19N 40°32' E 014°15'0 0.1
2016-Jun-30 17:21N 40°32' E 014°15'17 6.0
2016-Jun-30 14:28N 40°50' E 014°14'0 0.0
2016-Jun-30 12:16N 40°50' E 014°14'0 0.0
2016-Jun-30 11:32N 40°50' E 014°14'0 0.0
2016-Jun-30 10:33N 40°50' E 014°14'0 0.0
2016-Jun-30 09:33N 40°50' E 014°14'0 0.0
2016-Jun-30 08:33N 40°50' E 014°14'0 0.0
2016-Jun-30 02:33N 40°50' E 014°14'0 0.0
2016-Jun-30 01:34N 40°50' E 014°14'0 0.0
2016-Jun-30 00:34N 40°50' E 014°14'0 0.0
2016-Jun-29 23:33N 40°50' E 014°14'0 0.0
2016-Jun-29 22:34N 40°50' E 014°14'0 0.0
2016-Jun-29 19:33N 40°50' E 014°14'0 0.0
2016-Jun-29 18:29N 40°50' E 014°14'0 0.0
2016-Jun-29 16:34N 40°50' E 014°14'0 0.0
2016-Jun-29 15:33N 40°50' E 014°14'0 0.0
2016-Jun-29 14:33N 40°50' E 014°14'0 0.0
2016-Jun-29 13:33N 40°50' E 014°14'0 0.2
2016-Jun-29 12:18N 40°49' E 014°14'810.8
2016-Jun-29 11:33N 40°41' E 014°16'1010.0
2016-Jun-29 10:33N 40°34' E 014°24'7 0.3
2016-Jun-28 12:10N 40°32' E 014°15'0 0.0
2016-Jun-28 10:28N 40°32' E 014°15'0 0.0
2016-Jun-27 20:10N 40°32' E 014°15'0 0.1
2016-Jun-27 19:22N 40°32' E 014°15'2 1.1
2016-Jun-27 17:24N 40°34' E 014°16'910.1
2016-Jun-27 16:33N 40°43' E 014°15'7 1.6
2016-Jun-27 12:16N 40°49' E 014°14'0 0.0
2016-Jun-27 11:22N 40°49' E 014°14'0 0.0
2016-Jun-26 23:31N 40°49' E 014°14'0 0.0
2016-Jun-26 18:28N 40°49' E 014°14'0 0.0
2016-Jun-26 17:31N 40°49' E 014°14'0 0.0
2016-Jun-26 16:16N 40°49' E 014°14'0 0.0
2016-Jun-26 15:31N 40°49' E 014°14'0 0.0
2016-Jun-26 14:31N 40°49' E 014°14'0 0.0
2016-Jun-26 13:22N 40°49' E 014°14'0 0.0
2016-Jun-26 12:04N 40°49' E 014°14'0 0.0
2016-Jun-26 11:28N 40°49' E 014°14'0 0.0
2016-Jun-26 10:16N 40°49' E 014°14'0 0.0
2016-Jun-26 08:28N 40°49' E 014°14'1 1.3
2016-Jun-26 07:33N 40°48' E 014°14'16 2.0
2016-Jun-25 23:25N 40°32' E 014°14'0 0.0
2016-Jun-25 22:22N 40°32' E 014°14'0 0.0
2016-Jun-25 21:19N 40°32' E 014°14'0 0.0
2016-Jun-25 20:28N 40°32' E 014°14'0 0.0
2016-Jun-25 19:31N 40°32' E 014°15'0 0.0
2016-Jun-25 17:16N 40°32' E 014°14'0 0.0
2016-Jun-25 14:22N 40°32' E 014°15'0 0.0
2016-Jun-25 13:31N 40°32' E 014°15'0 0.0
2016-Jun-25 12:31N 40°32' E 014°15'0 0.0
2016-Jun-24 21:31N 40°32' E 014°14'  
2016-Jun-22 16:33N 38°25' E 015°41'10 9.7
2016-Jun-22 15:33N 38°15' E 015°39'9 9.2
2016-Jun-22 14:33N 38°06' E 015°36'8 8.2
2016-Jun-22 13:33N 37°59' E 015°30'11 9.6
2016-Jun-22 12:23N 37°50' E 015°22'  
Track history (hours):
 
Tides and Currents Weather Stations Pressure Air Temp Water Temp Dewpoint Dewpoint Depression Visibility Wind Speed Wind Dir Waves Ship Positions

Baraka

Last reported at 2016-Jul-01 02:31 UTC. Time now 2016-Jul-01 02:48 UTC.
Position N 40°32' E 014°15'.

Length 59 m; draft 3.3 m.

Type: Other ship. MMSI: 319015300.

Date/timePositionNaut miles runAvg speedWind from/ knotsBaromVisibWave heightAir tempDewpointWater temp
2016-Jul-01 02:31N 40°32' E 014°15'0 0.0
2016-Jul-01 01:28N 40°32' E 014°15'0 0.0
2016-Jul-01 00:19N 40°32' E 014°15'0 0.0
2016-Jun-30 23:28N 40°32' E 014°15'0 0.0
2016-Jun-30 22:31N 40°32' E 014°15'0 0.0
2016-Jun-30 21:28N 40°32' E 014°15'0 0.0
2016-Jun-30 20:31N 40°32' E 014°15'0 0.0
2016-Jun-30 19:28N 40°32' E 014°15'0 0.0
2016-Jun-30 18:19N 40°32' E 014°15'0 0.1
2016-Jun-30 17:21N 40°32' E 014°15'17 6.0
2016-Jun-30 14:28N 40°50' E 014°14'0 0.0
2016-Jun-30 12:16N 40°50' E 014°14'0 0.0
2016-Jun-30 11:32N 40°50' E 014°14'0 0.0
2016-Jun-30 10:33N 40°50' E 014°14'0 0.0
2016-Jun-30 09:33N 40°50' E 014°14'0 0.0
2016-Jun-30 08:33N 40°50' E 014°14'0 0.0
2016-Jun-30 02:33N 40°50' E 014°14'0 0.0
2016-Jun-30 01:34N 40°50' E 014°14'0 0.0
2016-Jun-30 00:34N 40°50' E 014°14'0 0.0
2016-Jun-29 23:33N 40°50' E 014°14'0 0.0
2016-Jun-29 22:34N 40°50' E 014°14'0 0.0
2016-Jun-29 19:33N 40°50' E 014°14'0 0.0
2016-Jun-29 18:29N 40°50' E 014°14'0 0.0
2016-Jun-29 16:34N 40°50' E 014°14'0 0.0
2016-Jun-29 15:33N 40°50' E 014°14'0 0.0
2016-Jun-29 14:33N 40°50' E 014°14'0 0.0
2016-Jun-29 13:33N 40°50' E 014°14'0 0.2
2016-Jun-29 12:18N 40°49' E 014°14'810.8
2016-Jun-29 11:33N 40°41' E 014°16'1010.0
2016-Jun-29 10:33N 40°34' E 014°24'7 0.3
2016-Jun-28 12:10N 40°32' E 014°15'0 0.0
2016-Jun-28 10:28N 40°32' E 014°15'0 0.0
2016-Jun-27 20:10N 40°32' E 014°15'0 0.1
2016-Jun-27 19:22N 40°32' E 014°15'2 1.1
2016-Jun-27 17:24N 40°34' E 014°16'910.1
2016-Jun-27 16:33N 40°43' E 014°15'7 1.6
2016-Jun-27 12:16N 40°49' E 014°14'0 0.0
2016-Jun-27 11:22N 40°49' E 014°14'0 0.0
2016-Jun-26 23:31N 40°49' E 014°14'0 0.0
2016-Jun-26 18:28N 40°49' E 014°14'0 0.0
2016-Jun-26 17:31N 40°49' E 014°14'0 0.0
2016-Jun-26 16:16N 40°49' E 014°14'0 0.0
2016-Jun-26 15:31N 40°49' E 014°14'0 0.0
2016-Jun-26 14:31N 40°49' E 014°14'0 0.0
2016-Jun-26 13:22N 40°49' E 014°14'0 0.0
2016-Jun-26 12:04N 40°49' E 014°14'0 0.0
2016-Jun-26 11:28N 40°49' E 014°14'0 0.0
2016-Jun-26 10:16N 40°49' E 014°14'0 0.0
2016-Jun-26 08:28N 40°49' E 014°14'1 1.3
2016-Jun-26 07:33N 40°48' E 014°14'16 2.0
2016-Jun-25 23:25N 40°32' E 014°14'0 0.0
2016-Jun-25 22:22N 40°32' E 014°14'0 0.0
2016-Jun-25 21:19N 40°32' E 014°14'0 0.0
2016-Jun-25 20:28N 40°32' E 014°14'0 0.0
2016-Jun-25 19:31N 40°32' E 014°15'0 0.0
2016-Jun-25 17:16N 40°32' E 014°14'0 0.0
2016-Jun-25 14:22N 40°32' E 014°15'0 0.0
2016-Jun-25 13:31N 40°32' E 014°15'0 0.0
2016-Jun-25 12:31N 40°32' E 014°15'0 0.0
2016-Jun-24 21:31N 40°32' E 014°14'  
2016-Jun-22 16:33N 38°25' E 015°41'10 9.7
2016-Jun-22 15:33N 38°15' E 015°39'9 9.2
2016-Jun-22 14:33N 38°06' E 015°36'8 8.2
2016-Jun-22 13:33N 37°59' E 015°30'11 9.6
2016-Jun-22 12:23N 37°50' E 015°22'  

Dump ship's entire track history